Main page
METAR-TAF:

METAR-TAF

Airports :

Nalchik Airport

Nalchik, Russia

latitude: 43-30-46N, longitude: 043-38-12E, elevation: 445 m

Current weather observation

The report was made 38 minutes ago, at 12:30 UTC
Wind 2 kt from the East/Southeast
Temperature 25°C
Humidity 30%
Pressure 1018 hPa
Visibility 10 km or more
Few clouds
Broken clouds

METAR: URMN 151230Z 11001MPS 9999 FEW/// BKN/// 25/06 Q1018 R24/010070 NOSIG RMK QFE726

Time: 16:08 (13:08 UTC)

Forecast

The report was made 2 hours and 8 minutes ago, at 11:00 UTC
Forecast valid from 15 at 12 UTC to 15 at 21 UTC
Wind 6 kt from the East/Northeast
Visibility 10 km or more
Broken clouds at a height of 2000 ft
Temporary
from 15 at 12 UTC to 15 at 15 UTC
Wind 10 kt from the Northwest with gusts up to 19 kt

TAF: URMN 151100Z 1512/1521 06003MPS 9999 BKN020 TEMPO 1512/1515 32005G10MPS

Weather observations and forecasts of more than 4000 airports (METAR and TAF reports).

The available stations are represented by yellow and red dots on the map.

Hover mouse over dot to see the name of the station.

Then click to see weather observations and forecasts.

To change the map : click on the green buttons with a black cross to zoom in, on the green button with a dash to zoom out, or on the green arrows for adjacent maps.


METAR-TAF: